Date,TemperatureHighF,TemperatureAvgF,TemperatureLowF,DewpointHighF,DewpointAvgF,DewpointLowF,HumidityHigh,HumidityAvg,HumidityLow,PressureMaxIn,PressureMinIn,WindSpeedMaxMPH,WindSpeedAvgMPH,GustSpeedMaxMPH,PrecipitationSumIn
2013-1-1,30.9,24.4,9.5,25.7,14.3,1.7,91,66,43,29.87,29.61,11,1,21,0.00
2013-1-2,24.5,12.5,3.0,10.8,2.0,-7.6,80,63,43,30.06,29.84,11,2,14,0.00
2013-1-3,23.4,8.6,-2.7,4.0,-2.0,-8.5,78,62,39,30.10,29.94,4,1,6,0.00
2013-1-4,33.7,23.0,3.5,23.7,16.2,-0.1,94,76,63,29.94,29.72,10,2,14,0.00
2013-1-5,36.2,29.3,16.3,26.5,17.9,11.2,83,64,43,30.24,29.73,11,2,14,0.01
2013-1-6,38.2,26.8,15.1,27.8,21.0,11.2,88,79,63,30.21,29.89,12,1,14,0.01
2013-1-7,33.4,25.5,12.8,27.1,20.6,10.9,94,82,60,30.37,29.91,7,1,10,0.00
2013-1-8,42.7,28.7,11.7,24.9,21.5,9.6,96,76,46,30.34,30.18,13,2,15,0.04
2013-1-9,38.8,29.6,17.1,34.2,25.2,15.4,95,84,68,30.40,29.89,7,0,12,0.02
2013-1-10,44.4,37.5,26.9,35.6,27.0,22.0,94,67,47,30.50,29.91,13,2,18,0.07
2013-1-11,35.7,29.6,20.5,33.0,25.2,18.5,97,84,57,30.51,30.23,3,0,5,0.05
2013-1-12,42.7,38.3,33.7,41.6,37.6,32.9,98,97,94,30.23,30.08,4,0,6,0.04
2013-1-13,45.3,40.7,37.5,45.0,40.4,37.0,99,99,98,30.13,29.92,3,0,7,0.01
2013-1-14,59.1,46.2,34.2,52.4,41.1,27.2,99,84,53,30.20,29.82,8,1,12,0.00
2013-1-15,38.8,32.3,27.5,30.4,26.9,23.8,96,81,57,30.30,30.20,2,0,4,0.00
2013-1-16,30.4,29.4,28.9,28.2,25.1,22.2,95,84,75,30.25,30.12,1,0,1,0.00
2013-1-21,26.4,22.7,17.1,14.2,6.0,-2.1,84,51,33,30.03,29.81,14,1,14,0.00
2013-1-22,24.2,17.9,13.7,14.5,6.8,-0.5,83,62,36,29.87,29.75,6,1,13,0.00
2013-1-31,37.5,33.2,29.2,19.5,14.5,11.0,58,46,42,29.45,29.24,15,6,30,0.23
2013-2-1,29.8,24.8,15.3,18.2,8.7,3.5,66,50,35,30.02,29.46,19,3,21,0.00
2013-2-2,26.0,18.6,9.1,14.4,7.1,2.9,89,62,40,30.19,30.02,10,1,12,0.00
2013-2-3,27.3,23.8,18.1,19.2,15.2,13.4,87,70,57,30.03,29.68,6,1,11,0.00
2013-2-4,28.6,23.0,16.4,15.3,7.2,-3.6,88,53,27,29.86,29.66,14,3,26,0.00
2013-2-5,27.6,16.7,7.6,11.3,3.4,-3.3,83,57,32,30.01,29.86,5,1,9,0.00
2013-2-6,36.3,25.9,15.7,24.1,17.0,11.2,88,70,48,30.12,29.91,11,1,16,0.00
2013-4-1,34.9,33.7,32.5,18.7,18.1,17.6,54,52,50,29.70,29.69,6,2,8,0.63
2013-4-2,39.0,32.3,27.5,18.2,12.8,7.9,59,45,30,29.83,29.69,18,4,26,0.00
2013-4-3,45.1,35.1,28.2,18.4,12.5,6.3,63,41,21,30.06,29.81,19,4,25,0.00
2013-4-4,53.7,38.9,25.3,29.0,16.8,8.0,78,44,19,30.21,29.95,19,2,19,0.00
2013-4-5,59.5,44.7,35.0,29.7,24.8,17.3,70,48,22,29.97,29.61,12,2,16,0.00
2013-4-6,42.9,33.5,24.5,22.0,10.0,3.3,67,39,20,30.33,29.80,17,2,17,0.00
2013-4-7,48.6,37.3,22.4,38.7,27.2,13.8,83,68,41,30.33,29.94,15,1,16,0.00
2013-4-8,61.2,48.4,37.7,42.0,37.5,35.4,96,69,40,30.11,29.89,6,1,7,0.00
2013-4-9,53.2,44.6,39.3,47.6,42.2,35.3,97,92,76,30.10,29.86,4,0,7,0.25
2013-4-10,58.2,47.5,41.7,50.0,45.1,40.7,98,92,70,29.99,29.86,4,0,6,0.53
2013-4-11,53.0,46.1,40.9,45.0,34.4,19.0,98,68,32,30.17,29.85,8,1,8,0.04
2013-4-12,41.8,35.6,32.9,36.0,28.3,16.4,98,78,39,30.25,29.87,10,1,13,0.31
2013-4-13,49.3,40.1,33.8,40.3,36.7,33.3,98,88,67,29.90,29.78,6,1,9,0.21
2013-4-14,52.9,44.3,37.6,41.1,37.2,32.8,97,77,52,30.17,29.88,8,1,11,0.00
2013-4-15,54.2,41.9,29.9,41.1,34.9,28.6,96,78,43,30.39,30.15,8,1,13,0.00
2013-4-16,58.4,46.7,31.0,52.8,40.6,30.5,98,81,57,30.40,29.95,12,2,18,0.01
2013-4-17,63.9,54.2,40.5,54.6,36.0,27.3,86,53,29,30.32,29.95,15,2,16,0.00
2013-4-18,52.1,43.3,29.2,41.2,32.4,23.7,91,67,37,30.47,30.15,8,1,10,0.00
2013-4-19,53.4,49.5,48.0,51.7,45.7,39.5,95,87,78,30.17,29.96,4,1,10,0.00
2013-4-26,57.1,47.8,36.3,40.0,36.8,32.7,95,68,40,30.42,30.37,6,1,7,0.00
2013-4-27,62.1,47.4,33.4,42.5,37.7,32.4,97,73,41,30.41,30.29,7,1,11,0.00
2013-4-28,65.1,49.2,31.5,42.8,36.5,30.5,98,66,35,30.32,30.24,7,1,10,0.00
2013-4-29,66.4,49.9,34.9,48.5,39.6,33.3,97,71,37,30.26,30.18,6,1,11,0.00
2013-4-30,68.7,51.4,33.5,46.1,34.7,24.6,98,61,22,30.37,30.23,6,1,11,0.00
2013-5-1,70.9,51.6,30.6,44.2,33.1,26.3,94,56,24,30.45,30.34,6,1,9,0.00
2013-5-2,71.1,48.0,35.6,46.7,38.2,33.4,94,72,34,30.52,30.39,8,1,12,0.00
2013-5-3,62.2,48.9,34.2,45.4,40.7,33.1,98,75,51,30.54,30.36,6,1,8,0.00
2013-5-4,60.4,46.8,34.5,45.3,39.2,33.2,98,77,52,30.39,30.30,8,1,9,0.00
2013-5-5,63.3,46.2,29.8,43.5,37.2,29.0,98,74,45,30.35,30.24,7,1,10,0.00
2013-5-6,65.5,47.5,30.8,48.8,41.6,29.8,98,82,41,30.27,30.15,9,1,10,0.00
2013-5-7,74.8,58.2,44.0,58.7,50.7,43.5,98,80,40,30.17,30.07,10,1,12,0.00
2013-5-8,75.3,58.4,45.0,63.8,53.5,44.1,99,86,61,30.21,30.12,8,1,11,0.00
2013-5-11,69.3,64.3,60.8,65.1,62.2,60.0,98,93,83,29.75,29.66,5,1,9,0.25
2013-5-12,70.3,60.7,48.0,61.6,53.0,32.7,99,79,44,29.73,29.51,10,1,17,0.07
2013-5-13,57.5,48.4,38.3,34.3,31.2,28.5,79,53,34,30.00,29.70,17,2,19,0.00
2013-5-14,60.9,48.4,35.3,41.5,34.7,25.1,93,64,27,30.02,29.92,6,1,13,0.00
2013-5-15,64.6,49.7,34.3,47.6,35.1,25.6,94,64,27,30.02,29.73,8,1,13,0.00
2013-5-17,67.2,59.1,48.8,44.8,40.7,36.7,82,53,34,30.20,30.01,7,1,10,0.00
2013-5-18,65.8,52.5,39.9,48.0,44.6,38.6,97,77,47,30.31,30.18,9,1,12,0.00
2013-5-19,63.6,53.3,49.4,52.5,49.8,47.2,97,88,65,30.36,30.22,4,1,6,0.05
2013-5-20,75.1,61.1,51.1,66.7,58.6,50.3,99,92,74,30.24,29.90,5,0,6,0.14
2013-5-21,59.8,53.2,49.6,57.5,52.1,48.8,98,96,91,30.10,29.93,6,1,8,0.39
2013-5-22,56.9,52.4,50.0,55.4,51.7,49.1,99,98,94,30.10,29.89,6,0,8,0.54
2013-5-23,66.6,58.1,50.0,65.2,57.2,49.7,99,97,87,29.95,29.77,6,0,10,0.13
2013-5-24,71.1,61.9,50.6,69.6,61.3,50.2,99,98,92,29.81,29.62,7,1,10,1.87
2013-5-25,53.0,49.1,46.5,52.2,48.5,46.2,99,98,92,29.81,29.62,12,1,14,0.98
2013-5-26,59.3,50.2,42.2,48.3,45.3,40.6,99,84,60,29.99,29.58,8,1,13,0.09
2013-5-27,69.9,54.5,39.2,46.1,39.3,31.8,97,63,27,30.15,29.97,9,1,12,0.00
2013-5-28,75.1,56.4,38.9,49.6,40.7,35.5,98,63,26,30.23,30.14,6,1,13,0.00
2013-5-29,61.3,55.0,46.7,59.9,54.0,44.6,99,96,92,30.18,29.98,2,0,2,0.17
2013-5-30,88.3,72.6,56.2,70.0,62.3,55.8,99,75,40,30.01,29.93,10,1,11,0.00
2013-5-31,94.0,77.8,59.4,71.2,65.2,58.5,99,70,39,30.03,29.85,10,1,13,0.00
2013-6-1,95.1,80.0,63.2,73.2,66.4,62.0,98,67,35,29.89,29.75,7,1,16,0.00
2013-6-2,90.1,77.3,67.3,74.0,68.8,64.3,98,77,52,29.78,29.61,9,1,12,0.82
2013-6-3,81.0,69.4,58.3,69.8,65.8,55.1,99,89,66,29.77,29.66,7,1,11,0.08
2013-6-4,67.5,58.8,48.1,56.1,47.8,42.2,98,70,41,30.05,29.75,7,1,12,0.00
2013-6-5,73.1,59.3,46.0,50.9,47.2,39.1,96,68,32,30.16,30.03,5,1,8,0.00
2013-6-6,71.0,60.5,52.3,55.9,51.0,41.7,95,75,37,30.19,30.12,7,1,8,0.00
2013-6-7,59.9,55.6,52.0,55.4,53.2,48.0,98,92,67,30.13,29.89,5,0,5,0.71
2013-6-8,74.9,62.4,54.2,66.7,59.0,53.2,99,90,69,29.95,29.63,8,1,12,0.67
2013-6-9,79.3,67.5,54.9,61.7,57.6,53.3,99,74,43,30.12,29.94,7,1,12,0.00
2013-6-10,69.1,61.1,51.3,59.0,55.8,50.5,98,84,65,30.19,30.03,5,0,5,0.08
2013-6-11,59.1,56.5,55.1,58.0,55.8,54.5,99,97,95,30.05,29.54,12,1,12,1.08
2013-6-12,65.2,60.2,55.4,60.1,57.5,55.1,99,91,80,29.76,29.51,9,1,10,0.01
2013-6-13,72.0,60.9,50.1,59.2,55.1,49.3,99,83,54,29.78,29.70,5,0,5,0.03
2013-6-14,79.5,64.0,55.7,61.6,57.1,52.5,99,81,43,29.72,29.62,7,0,11,0.00
2013-6-15,80.1,64.9,52.0,55.8,48.6,42.9,97,61,29,29.88,29.71,6,1,11,0.00
2013-6-16,75.9,63.3,48.6,62.2,55.3,47.2,96,77,47,29.89,29.68,7,0,10,0.00
2013-6-17,83.8,70.1,58.8,63.3,60.6,57.3,97,75,41,29.84,29.69,11,1,15,0.00
2013-6-18,69.5,61.7,57.3,62.2,59.4,56.5,98,93,69,29.97,29.83,2,0,4,0.08
2013-6-19,73.8,59.6,50.7,57.2,53.2,46.0,99,83,39,29.99,29.90,4,0,7,0.00
2013-6-25,73.5,71.9,69.3,72.3,70.8,68.4,97,96,96,29.72,29.68,1,0,2,0.05
2013-6-26,82.1,69.7,58.8,74.0,67.3,58.2,99,93,70,29.87,29.65,6,0,8,0.16
2013-6-27,71.4,61.5,56.5,65.7,59.7,55.9,99,94,80,29.87,29.79,3,0,4,0.83
2013-6-28,58.5,57.9,57.2,58.2,57.5,56.9,99,99,98,29.82,29.66,9,1,9,0.44
2013-9-10,65.8,65.5,65.3,65.2,64.9,64.7,98,98,98,30.05,30.02,0,0,0,0.14
2013-9-11,93.8,78.4,63.0,81.0,72.4,62.7,99,84,54,30.03,29.85,18,1,18,0.32
2013-9-12,84.4,71.3,65.3,76.9,70.0,65.0,99,96,75,29.95,29.63,8,0,10,1.42
2013-9-13,72.2,65.4,57.4,70.9,65.0,57.1,99,99,95,29.71,29.56,4,0,5,1.44
2013-9-14,71.8,60.5,51.5,63.5,57.9,50.8,99,92,65,30.01,29.70,6,0,7,0.01
2013-9-15,73.0,58.0,43.7,57.0,51.2,43.4,99,81,44,30.12,29.99,7,0,11,0.00
2013-9-16,68.0,57.0,45.6,59.5,51.3,37.0,97,82,62,30.25,29.96,5,1,9,0.01
2013-9-17,65.6,50.7,37.8,51.0,42.6,36.8,98,77,46,30.40,30.23,5,0,7,0.00
2013-9-18,74.2,54.9,41.4,58.0,47.8,40.9,99,81,40,30.30,30.09,6,0,8,0.00
2013-9-19,76.7,58.2,44.4,58.2,50.9,43.9,99,80,43,30.12,30.00,8,0,8,0.00
2013-9-20,77.3,59.4,48.3,61.1,53.2,47.7,99,83,49,30.09,30.00,4,0,5,0.01
2013-9-21,71.3,61.8,54.6,64.7,59.5,54.0,99,93,75,30.01,29.72,8,1,11,0.00
2013-9-22,72.7,64.5,50.5,66.4,59.7,46.8,98,85,54,29.75,29.57,6,1,14,0.49
2013-9-23,61.2,50.8,42.2,48.5,44.0,40.8,96,79,56,29.95,29.75,8,1,8,0.00
2013-9-24,62.6,48.3,37.4,48.2,43.1,36.9,99,84,50,29.94,29.81,4,0,8,0.00
2013-9-25,61.7,51.3,40.8,53.0,47.1,40.2,99,86,63,29.99,29.87,5,0,10,0.00
2013-9-26,68.7,56.3,44.4,56.9,50.8,43.7,99,83,58,30.13,29.98,5,0,7,0.00
2013-9-27,72.0,60.1,51.9,59.6,54.7,51.4,98,83,55,30.24,30.12,3,0,4,0.00
2013-9-28,73.3,57.7,47.1,58.7,52.6,46.4,99,85,45,30.33,30.24,4,0,6,0.00
2013-9-29,67.5,51.3,41.2,56.6,47.4,40.7,99,88,55,30.27,30.12,4,0,6,0.01
2013-9-30,67.0,50.6,38.7,57.1,47.5,38.1,99,90,69,30.13,29.96,4,0,5,0.00
2013-10-1,77.0,57.6,42.6,60.1,52.0,42.1,99,85,46,29.97,29.82,4,0,6,0.01
2013-10-2,80.0,63.2,49.9,64.3,56.9,49.4,99,82,51,29.89,29.75,7,0,9,0.00
2013-10-3,76.9,60.9,46.7,58.8,52.7,46.2,99,79,38,30.05,29.87,5,0,9,0.00
2013-10-4,71.7,58.4,46.8,59.5,52.4,46.2,99,83,47,30.08,30.00,5,0,6,0.00
2013-10-5,64.8,58.0,53.2,54.5,51.4,46.5,96,79,59,30.12,30.05,4,0,4,0.00
2013-10-6,54.7,52.4,49.8,53.2,47.7,40.0,98,85,69,30.27,30.11,4,0,6,0.14
2013-10-7,69.0,61.4,52.8,67.8,60.8,52.0,99,98,93,30.19,29.78,7,1,12,0.58
2013-10-8,63.7,54.4,39.3,58.5,46.3,38.5,97,77,44,30.38,29.82,7,1,10,0.00
2013-10-9,62.4,46.0,34.0,49.9,40.5,33.5,99,84,46,30.49,30.36,4,0,5,0.00
2013-10-10,65.6,48.0,33.6,54.1,43.4,33.1,99,87,40,30.38,30.18,4,0,5,0.00
2013-10-11,68.5,54.3,43.1,57.8,50.3,42.6,99,88,58,30.20,30.10,3,0,4,0.00
2013-10-12,58.1,51.4,43.2,54.5,49.5,42.6,99,94,82,30.41,30.15,4,0,7,0.01
2013-10-13,60.2,49.7,41.7,52.8,46.7,40.9,99,90,65,30.46,30.38,3,0,5,0.00
2013-10-14,66.6,49.8,34.3,51.7,44.4,33.8,99,84,48,30.40,30.22,7,0,7,0.00
2013-10-15,64.1,56.9,51.6,56.0,53.1,50.2,97,87,68,30.27,30.19,4,0,6,0.00
2013-10-16,62.5,57.1,53.9,56.4,54.7,49.9,98,92,70,30.20,29.89,3,0,5,0.00
2013-10-17,73.5,59.6,50.1,59.8,53.9,49.0,98,84,49,29.91,29.68,8,1,10,0.00
2013-10-18,59.8,54.8,50.4,59.4,54.3,49.0,99,98,96,29.73,29.56,2,0,4,0.28
2013-11-27,47.6,43.4,40.1,47.3,43.1,39.5,99,99,98,29.29,29.14,5,1,8,2.43
2013-11-28,39.9,29.2,18.0,39.4,17.3,7.1,98,63,40,30.38,29.29,17,3,22,0.00
2013-11-29,28.7,19.8,13.4,13.2,9.9,6.8,90,67,43,30.74,30.38,6,1,7,0.00
2013-11-30,30.2,20.1,9.3,22.4,14.3,7.2,92,79,52,30.81,30.42,6,0,8,0.00
2013-12-1,35.5,33.2,28.6,34.9,30.7,20.7,98,91,72,30.42,30.03,3,0,5,0.15
2013-12-2,37.9,36.1,34.4,37.4,35.6,33.9,99,98,98,30.03,29.91,3,0,4,0.01
2013-12-3,46.1,37.6,29.6,40.9,36.5,28.9,99,96,81,29.91,29.83,4,0,5,0.00
2013-12-4,40.5,31.6,25.0,32.2,28.7,24.3,98,90,66,30.19,29.88,3,0,9,0.01
2013-12-5,36.1,32.5,25.4,35.5,31.7,24.7,98,97,92,30.24,29.89,1,0,2,0.04
2013-12-6,45.1,39.5,35.6,44.8,39.2,35.1,99,99,98,29.96,29.83,1,0,4,0.10
2013-12-7,37.7,30.7,25.7,34.5,20.4,12.7,95,66,54,30.41,30.16,7,1,10,0.07
2013-12-8,29.2,24.5,18.9,20.7,15.3,11.0,87,69,48,30.56,30.41,5,0,6,0.00
2013-12-9,25.4,24.9,24.0,21.8,15.2,12.1,91,67,57,30.51,30.35,4,1,8,0.00
2013-12-14,12.0,11.3,10.5,9.4,2.9,-3.6,90,70,49,30.59,30.33,6,1,7,0.00
2013-12-15,20.7,15.1,7.7,18.8,13.1,5.4,93,92,90,30.33,29.40,5,0,6,0.00
2013-12-16,24.8,17.7,2.9,18.1,8.8,-2.4,95,70,41,30.19,29.65,10,1,18,0.00
2013-12-17,13.8,4.6,-12.2,10.9,-1.2,-16.1,91,78,47,30.29,30.01,4,0,5,0.00
2013-12-18,33.7,22.9,13.2,25.2,19.1,11.0,94,86,64,30.01,29.84,0,0,0,0.01
2013-12-19,34.9,27.8,22.4,26.2,23.1,19.3,92,83,68,30.07,29.91,0,0,0,0.00
2013-12-20,43.2,33.1,25.5,37.8,30.4,23.1,96,90,74,30.11,29.88,2,0,2,0.28
2013-12-21,42.8,37.4,33.5,41.3,36.7,33.0,98,97,94,29.93,29.82,1,0,4,0.38
2013-12-22,36.8,31.6,28.3,36.3,31.0,27.4,98,97,96,30.07,29.85,6,0,7,0.30
2013-12-23,33.8,31.6,28.0,33.5,31.0,27.3,99,98,97,30.11,29.96,2,0,4,0.00
2013-12-24,33.7,28.1,16.7,33.5,27.1,14.6,99,96,90,30.16,30.05,1,0,4,0.00
2013-12-25,22.5,13.3,6.2,18.4,10.8,3.7,93,89,79,30.53,30.17,3,0,5,0.00
2013-12-26,25.4,18.2,11.3,24.2,16.6,9.4,95,93,92,30.51,30.06,0,0,2,0.00
2013-12-27,34.2,20.6,8.1,29.4,18.3,6.0,97,91,80,30.20,30.12,5,0,12,0.01
2013-12-28,37.7,29.1,15.5,33.6,26.4,14.1,96,90,81,30.16,29.93,10,1,14,0.00
2013-12-29,36.6,31.3,23.6,35.0,30.4,22.6,98,97,92,30.01,29.50,3,0,6,0.00
2013-12-30,36.0,25.8,6.2,34.5,23.3,4.1,98,90,67,30.16,29.49,11,0,15,0.00
2013-12-31,16.1,5.9,-0.4,10.2,2.5,-3.0,91,86,69,30.17,30.01,2,0,4,0.00
2014-1-1,21.3,11.1,0.3,11.1,5.9,-2.2,94,80,55,30.38,30.12,12,1,18,0.00
2014-1-2,11.2,1.1,-4.9,8.3,-2.4,-8.2,89,85,77,30.41,29.97,7,1,11,0.00